sensor_id;sensor_type;location;lat;lon;timestamp;pressure;altitude;pressure_sealevel;temperature;humidity
30724;BME280;17473;52.286;20.930;2022-08-04T00:00:29;100574.91;;;22.39;61.12
30724;BME280;17473;52.286;20.930;2022-08-04T00:03:13;100574.06;;;22.35;61.07
30724;BME280;17473;52.286;20.930;2022-08-04T00:06:01;100575.84;;;22.34;60.99
30724;BME280;17473;52.286;20.930;2022-08-04T00:08:55;100575.00;;;22.31;60.75
30724;BME280;17473;52.286;20.930;2022-08-04T00:11:29;100581.22;;;22.38;60.50
30724;BME280;17473;52.286;20.930;2022-08-04T00:14:06;100587.59;;;22.27;60.63
30724;BME280;17473;52.286;20.930;2022-08-04T00:16:37;100575.06;;;22.26;60.44
30724;BME280;17473;52.286;20.930;2022-08-04T00:19:29;100575.13;;;22.20;59.93
30724;BME280;17473;52.286;20.930;2022-08-04T00:22:03;100580.41;;;22.28;59.84
30724;BME280;17473;52.286;20.930;2022-08-04T00:24:31;100585.88;;;22.20;60.28
30724;BME280;17473;52.286;20.930;2022-08-04T00:26:59;100576.97;;;22.15;60.25
30724;BME280;17473;52.286;20.930;2022-08-04T00:29:27;100586.56;;;22.39;59.39
30724;BME280;17473;52.286;20.930;2022-08-04T00:31:55;100577.84;;;22.18;59.58
30724;BME280;17473;52.286;20.930;2022-08-04T00:34:29;100582.31;;;22.18;60.05
30724;BME280;17473;52.286;20.930;2022-08-04T00:36:57;100585.06;;;22.10;59.96
30724;BME280;17473;52.286;20.930;2022-08-04T00:39:25;100578.78;;;22.14;59.58
30724;BME280;17473;52.286;20.930;2022-08-04T00:56:43;100577.84;;;22.17;58.72
30724;BME280;17473;52.286;20.930;2022-08-04T00:59:38;100580.69;;;22.03;59.22
30724;BME280;17473;52.286;20.930;2022-08-04T01:02:28;100582.47;;;22.01;59.20
30724;BME280;17473;52.286;20.930;2022-08-04T01:11:30;100588.75;;;22.03;59.08
30724;BME280;17473;52.286;20.930;2022-08-04T01:14:55;100587.94;;;21.95;59.38
30724;BME280;17473;52.286;20.930;2022-08-04T01:18:06;100595.06;;;21.99;59.13
30724;BME280;17473;52.286;20.930;2022-08-04T01:21:04;100599.53;;;21.98;59.01
30724;BME280;17473;52.286;20.930;2022-08-04T01:27:05;100602.28;;;21.95;59.09
30724;BME280;17473;52.286;20.930;2022-08-04T01:29:48;100599.63;;;21.92;58.79
30724;BME280;17473;52.286;20.930;2022-08-04T01:32:29;100597.66;;;22.07;58.17
30724;BME280;17473;52.286;20.930;2022-08-04T01:35:20;100599.44;;;22.08;58.13
30724;BME280;17473;52.286;20.930;2022-08-04T01:38:35;100603.19;;;21.93;57.96
30724;BME280;17473;52.286;20.930;2022-08-04T01:41:06;100601.47;;;21.84;58.11
30724;BME280;17473;52.286;20.930;2022-08-04T01:43:39;100602.28;;;21.94;58.23
30724;BME280;17473;52.286;20.930;2022-08-04T01:46:12;100600.50;;;21.93;57.73
30724;BME280;17473;52.286;20.930;2022-08-04T01:48:46;100600.56;;;21.86;57.75
30724;BME280;17473;52.286;20.930;2022-08-04T01:51:18;100600.66;;;21.76;57.92
30724;BME280;17473;52.286;20.930;2022-08-04T01:53:47;100593.50;;;21.78;57.89
30724;BME280;17473;52.286;20.930;2022-08-04T01:56:15;100595.06;;;21.99;57.30
30724;BME280;17473;52.286;20.930;2022-08-04T01:58:42;100596.00;;;21.95;56.85
30724;BME280;17473;52.286;20.930;2022-08-04T02:01:12;100586.28;;;21.81;57.41
30724;BME280;17473;52.286;20.930;2022-08-04T02:03:45;100592.50;;;21.86;57.31
30724;BME280;17473;52.286;20.930;2022-08-04T02:09:28;100597.00;;;21.86;56.20
30724;BME280;17473;52.286;20.930;2022-08-04T02:12:46;100574.78;;;21.65;56.62
30724;BME280;17473;52.286;20.930;2022-08-04T02:16:15;100593.47;;;21.76;56.63
30724;BME280;17473;52.286;20.930;2022-08-04T02:18:57;100588.03;;;21.84;56.27
30724;BME280;17473;52.286;20.930;2022-08-04T02:21:27;100582.72;;;21.76;56.66
30724;BME280;17473;52.286;20.930;2022-08-04T02:24:14;100584.53;;;21.77;56.56
30724;BME280;17473;52.286;20.930;2022-08-04T02:26:47;100568.50;;;21.69;56.18
30724;BME280;17473;52.286;20.930;2022-08-04T02:29:36;100582.75;;;21.78;55.85
30724;BME280;17473;52.286;20.930;2022-08-04T02:32:18;100577.41;;;21.71;55.88
30724;BME280;17473;52.286;20.930;2022-08-04T02:34:53;100578.31;;;21.70;55.90
30724;BME280;17473;52.286;20.930;2022-08-04T02:37:20;100579.22;;;21.71;56.05
30724;BME280;17473;52.286;20.930;2022-08-04T02:39:52;100572.81;;;21.83;55.50
30724;BME280;17473;52.286;20.930;2022-08-04T02:42:21;100578.22;;;21.81;55.33
30724;BME280;17473;52.286;20.930;2022-08-04T02:44:50;100577.22;;;21.90;54.96
30724;BME280;17473;52.286;20.930;2022-08-04T02:47:20;100575.50;;;21.83;54.80
30724;BME280;17473;52.286;20.930;2022-08-04T02:49:50;100570.22;;;21.73;55.39
30724;BME280;17473;52.286;20.930;2022-08-04T02:52:19;100571.09;;;21.77;55.17
30724;BME280;17473;52.286;20.930;2022-08-04T02:54:50;100569.25;;;21.81;55.06
30724;BME280;17473;52.286;20.930;2022-08-04T02:57:23;100572.75;;;21.89;54.65
30724;BME280;17473;52.286;20.930;2022-08-04T03:00:19;100576.56;;;21.69;55.40
30724;BME280;17473;52.286;20.930;2022-08-04T03:03:24;100586.47;;;21.60;55.76
30724;BME280;17473;52.286;20.930;2022-08-04T03:09:39;100583.63;;;21.78;54.92
30724;BME280;17473;52.286;20.930;2022-08-04T03:39:00;100596.44;;;22.37;54.62
30724;BME280;17473;52.286;20.930;2022-08-04T03:51:29;100593.84;;;23.01;52.58
30724;BME280;17473;52.286;20.930;2022-08-04T04:01:42;100599.03;;;23.17;52.50
30724;BME280;17473;52.286;20.930;2022-08-04T04:04:57;100609.56;;;24.38;49.46
30724;BME280;17473;52.286;20.930;2022-08-04T04:07:56;100601.84;;;25.06;47.89
30724;BME280;17473;52.286;20.930;2022-08-04T04:13:33;100605.03;;;26.95;43.26
30724;BME280;17473;52.286;20.930;2022-08-04T04:24:58;100613.22;;;30.55;36.25
30724;BME280;17473;52.286;20.930;2022-08-04T04:27:55;100617.09;;;32.00;34.09
30724;BME280;17473;52.286;20.930;2022-08-04T04:31:07;100625.56;;;32.12;33.38
30724;BME280;17473;52.286;20.930;2022-08-04T04:34:14;100627.00;;;32.88;32.05
30724;BME280;17473;52.286;20.930;2022-08-04T04:39:13;100629.59;;;34.01;30.42
30724;BME280;17473;52.286;20.930;2022-08-04T04:42:12;100619.72;;;32.20;32.39
30724;BME280;17473;52.286;20.930;2022-08-04T04:45:02;100624.72;;;30.41;35.41
30724;BME280;17473;52.286;20.930;2022-08-04T04:53:57;100625.59;;;32.63;32.06
30724;BME280;17473;52.286;20.930;2022-08-04T04:59:30;100628.53;;;33.42;30.93
30724;BME280;17473;52.286;20.930;2022-08-04T05:13:56;100632.44;;;37.53;25.13
30724;BME280;17473;52.286;20.930;2022-08-04T05:16:52;100632.13;;;39.54;23.50
30724;BME280;17473;52.286;20.930;2022-08-04T05:19:58;100636.25;;;40.13;22.42
30724;BME280;17473;52.286;20.930;2022-08-04T05:25:40;100622.97;;;40.71;21.81
30724;BME280;17473;52.286;20.930;2022-08-04T05:28:42;100630.72;;;40.77;21.64
30724;BME280;17473;52.286;20.930;2022-08-04T05:31:17;100629.22;;;39.67;22.56
30724;BME280;17473;52.286;20.930;2022-08-04T05:33:57;100629.69;;;38.60;23.88
30724;BME280;17473;52.286;20.930;2022-08-04T05:36:43;100633.19;;;35.61;27.56
30724;BME280;17473;52.286;20.930;2022-08-04T05:39:27;100629.31;;;34.06;29.68
30724;BME280;17473;52.286;20.930;2022-08-04T05:42:00;100634.75;;;35.23;28.57
30724;BME280;17473;52.286;20.930;2022-08-04T05:44:31;100633.28;;;36.27;26.65
30724;BME280;17473;52.286;20.930;2022-08-04T05:47:00;100636.31;;;37.13;25.91
30724;BME280;17473;52.286;20.930;2022-08-04T05:49:30;100620.84;;;38.09;25.07
30724;BME280;17473;52.286;20.930;2022-08-04T05:52:02;100641.47;;;39.30;24.10
30724;BME280;17473;52.286;20.930;2022-08-04T05:54:32;100641.81;;;37.74;25.38
30724;BME280;17473;52.286;20.930;2022-08-04T05:57:06;100648.84;;;36.14;27.14
30724;BME280;17473;52.286;20.930;2022-08-04T05:59:38;100646.53;;;37.85;24.98
30724;BME280;17473;52.286;20.930;2022-08-04T06:02:09;100647.25;;;38.12;24.90
30724;BME280;17473;52.286;20.930;2022-08-04T06:04:41;100650.28;;;38.20;24.97
30724;BME280;17473;52.286;20.930;2022-08-04T06:07:09;100647.72;;;40.09;23.35
30724;BME280;17473;52.286;20.930;2022-08-04T06:09:37;100656.16;;;41.02;22.37
30724;BME280;17473;52.286;20.930;2022-08-04T06:12:10;100661.69;;;41.02;21.95
30724;BME280;17473;52.286;20.930;2022-08-04T06:14:46;100668.06;;;40.92;22.08
30724;BME280;17473;52.286;20.930;2022-08-04T06:17:25;100659.53;;;42.24;20.65
30724;BME280;17473;52.286;20.930;2022-08-04T06:20:14;100658.38;;;42.94;19.51
30724;BME280;17473;52.286;20.930;2022-08-04T06:22:52;100651.25;;;44.20;18.57
30724;BME280;17473;52.286;20.930;2022-08-04T06:25:27;100651.59;;;43.53;19.64
30724;BME280;17473;52.286;20.930;2022-08-04T06:27:55;100659.69;;;44.36;18.62
30724;BME280;17473;52.286;20.930;2022-08-04T06:30:25;100664.72;;;44.59;18.32
30724;BME280;17473;52.286;20.930;2022-08-04T06:32:55;100660.03;;;43.97;18.96
30724;BME280;17473;52.286;20.930;2022-08-04T06:35:31;100651.88;;;44.14;18.35
30724;BME280;17473;52.286;20.930;2022-08-04T06:37:59;100663.13;;;43.58;18.78
30724;BME280;17473;52.286;20.930;2022-08-04T06:40:28;100654.97;;;43.92;18.60
30724;BME280;17473;52.286;20.930;2022-08-04T06:43:05;100666.47;;;44.86;18.01
30724;BME280;17473;52.286;20.930;2022-08-04T06:45:35;100666.78;;;45.18;17.65
30724;BME280;17473;52.286;20.930;2022-08-04T06:48:04;100661.59;;;44.89;17.91
30724;BME280;17473;52.286;20.930;2022-08-04T06:50:36;100657.09;;;44.61;17.77
30724;BME280;17473;52.286;20.930;2022-08-04T06:53:24;100665.16;;;45.07;17.69
30724;BME280;17473;52.286;20.930;2022-08-04T06:55:53;100651.97;;;46.26;16.75
30724;BME280;17473;52.286;20.930;2022-08-04T06:58:22;100656.03;;;45.31;17.30
30724;BME280;17473;52.286;20.930;2022-08-04T07:00:50;100656.00;;;47.05;16.21
30724;BME280;17473;52.286;20.930;2022-08-04T07:03:19;100652.38;;;45.99;16.55
30724;BME280;17473;52.286;20.930;2022-08-04T07:05:48;100650.41;;;46.57;16.37
30724;BME280;17473;52.286;20.930;2022-08-04T07:08:17;100651.94;;;46.68;16.52
30724;BME280;17473;52.286;20.930;2022-08-04T07:10:45;100652.91;;;46.92;16.33
30724;BME280;17473;52.286;20.930;2022-08-04T07:13:13;100649.31;;;46.58;16.52
30724;BME280;17473;52.286;20.930;2022-08-04T07:15:44;100653.56;;;47.02;16.18
30724;BME280;17473;52.286;20.930;2022-08-04T07:18:12;100649.41;;;46.98;16.21
30724;BME280;17473;52.286;20.930;2022-08-04T07:20:42;100644.69;;;46.42;16.18
30724;BME280;17473;52.286;20.930;2022-08-04T07:23:11;100646.06;;;45.97;16.69
30724;BME280;17473;52.286;20.930;2022-08-04T07:25:44;100643.09;;;45.82;15.93
30724;BME280;17473;52.286;20.930;2022-08-04T07:28:29;100657.13;;;45.55;16.47
30724;BME280;17473;52.286;20.930;2022-08-04T07:30:57;100652.56;;;44.86;17.32
30724;BME280;17473;52.286;20.930;2022-08-04T07:33:24;100649.44;;;45.41;16.63
30724;BME280;17473;52.286;20.930;2022-08-04T07:35:54;100655.56;;;45.53;17.26
30724;BME280;17473;52.286;20.930;2022-08-04T07:38:38;100640.66;;;44.50;17.13
30724;BME280;17473;52.286;20.930;2022-08-04T07:41:24;100657.84;;;43.09;18.36
30724;BME280;17473;52.286;20.930;2022-08-04T07:44:14;100650.97;;;41.69;19.20
30724;BME280;17473;52.286;20.930;2022-08-04T07:46:44;100653.78;;;41.28;19.80
30724;BME280;17473;52.286;20.930;2022-08-04T07:49:11;100653.94;;;40.64;20.28
30724;BME280;17473;52.286;20.930;2022-08-04T07:51:59;100648.88;;;41.00;20.26
30724;BME280;17473;52.286;20.930;2022-08-04T07:54:27;100654.41;;;40.48;20.85
30724;BME280;17473;52.286;20.930;2022-08-04T07:56:55;100651.25;;;40.74;20.50
30724;BME280;17473;52.286;20.930;2022-08-04T07:59:23;100652.13;;;40.75;20.79
30724;BME280;17473;52.286;20.930;2022-08-04T08:01:51;100643.84;;;40.53;20.96
30724;BME280;17473;52.286;20.930;2022-08-04T08:04:19;100650.03;;;39.16;21.43
30724;BME280;17473;52.286;20.930;2022-08-04T08:06:47;100635.06;;;38.61;22.46
30724;BME280;17473;52.286;20.930;2022-08-04T08:09:19;100640.28;;;37.70;22.65
30724;BME280;17473;52.286;20.930;2022-08-04T08:11:52;100636.28;;;38.23;22.47
30724;BME280;17473;52.286;20.930;2022-08-04T08:14:39;100643.28;;;38.27;22.47
30724;BME280;17473;52.286;20.930;2022-08-04T08:17:07;100646.91;;;38.86;22.06
30724;BME280;17473;52.286;20.930;2022-08-04T08:19:34;100644.59;;;39.48;21.02
30724;BME280;17473;52.286;20.930;2022-08-04T08:22:03;100639.59;;;39.74;20.88
30724;BME280;17473;52.286;20.930;2022-08-04T08:24:34;100642.69;;;39.93;20.49
30724;BME280;17473;52.286;20.930;2022-08-04T08:27:03;100644.22;;;38.73;21.26
30724;BME280;17473;52.286;20.930;2022-08-04T08:29:33;100641.97;;;38.67;21.89
30724;BME280;17473;52.286;20.930;2022-08-04T08:32:02;100646.41;;;38.23;22.34
30724;BME280;17473;52.286;20.930;2022-08-04T08:34:35;100637.03;;;37.89;22.96
30724;BME280;17473;52.286;20.930;2022-08-04T08:37:25;100637.09;;;38.71;21.96
30724;BME280;17473;52.286;20.930;2022-08-04T08:40:43;100639.84;;;39.05;21.87
30724;BME280;17473;52.286;20.930;2022-08-04T08:54:03;100647.09;;;38.02;23.57
30724;BME280;17473;52.286;20.930;2022-08-04T08:56:56;100647.41;;;37.86;23.40
30724;BME280;17473;52.286;20.930;2022-08-04T08:59:49;100644.38;;;37.03;24.11
30724;BME280;17473;52.286;20.930;2022-08-04T09:02:51;100646.28;;;37.03;23.78
30724;BME280;17473;52.286;20.930;2022-08-04T09:08:51;100647.59;;;36.71;24.56
30724;BME280;17473;52.286;20.930;2022-08-04T09:14:23;100644.38;;;36.13;25.40
30724;BME280;17473;52.286;20.930;2022-08-04T09:16:59;100638.94;;;35.44;25.99
30724;BME280;17473;52.286;20.930;2022-08-04T09:19:41;100636.91;;;35.87;26.22
30724;BME280;17473;52.286;20.930;2022-08-04T09:22:42;100637.22;;;36.23;25.40
30724;BME280;17473;52.286;20.930;2022-08-04T09:27:53;100639.34;;;36.58;25.21
30724;BME280;17473;52.286;20.930;2022-08-04T09:30:31;100633.28;;;36.27;25.21
30724;BME280;17473;52.286;20.930;2022-08-04T09:36:33;100643.84;;;36.72;24.76
30724;BME280;17473;52.286;20.930;2022-08-04T09:39:35;100639.97;;;36.23;24.81
30724;BME280;17473;52.286;20.930;2022-08-04T09:42:31;100626.38;;;35.81;25.68
30724;BME280;17473;52.286;20.930;2022-08-04T09:45:21;100632.75;;;35.54;26.13
30724;BME280;17473;52.286;20.930;2022-08-04T09:48:42;100625.78;;;35.07;27.03
30724;BME280;17473;52.286;20.930;2022-08-04T09:51:45;100634.41;;;35.57;26.43
30724;BME280;17473;52.286;20.930;2022-08-04T09:57:38;100624.94;;;36.55;25.65
30724;BME280;17473;52.286;20.930;2022-08-04T10:00:09;100634.06;;;36.29;25.87
30724;BME280;17473;52.286;20.930;2022-08-04T10:02:46;100627.75;;;36.14;25.78
30724;BME280;17473;52.286;20.930;2022-08-04T10:05:29;100639.03;;;35.69;25.99
30724;BME280;17473;52.286;20.930;2022-08-04T10:15:13;100626.28;;;34.41;27.66
30724;BME280;17473;52.286;20.930;2022-08-04T10:18:54;100629.13;;;34.09;28.26
30724;BME280;17473;52.286;20.930;2022-08-04T10:21:05;100629.88;;;34.56;27.43
30724;BME280;17473;52.286;20.930;2022-08-04T10:24:10;100627.28;;;33.31;28.88
30724;BME280;17473;52.286;20.930;2022-08-04T10:27:04;100624.81;;;33.59;28.48
30724;BME280;17473;52.286;20.930;2022-08-04T10:29:43;100629.72;;;33.84;28.05
30724;BME280;17473;52.286;20.930;2022-08-04T10:32:41;100618.72;;;34.00;27.72
30724;BME280;17473;52.286;20.930;2022-08-04T10:35:21;100611.41;;;34.45;27.32
30724;BME280;17473;52.286;20.930;2022-08-04T10:40:45;100608.28;;;34.95;27.16
30724;BME280;17473;52.286;20.930;2022-08-04T10:44:03;100605.31;;;34.84;26.97
30724;BME280;17473;52.286;20.930;2022-08-04T10:46:54;100598.16;;;34.38;27.65
30724;BME280;17473;52.286;20.930;2022-08-04T10:52:31;100596.72;;;34.90;27.36
30724;BME280;17473;52.286;20.930;2022-08-04T10:55:35;100595.03;;;35.02;26.98
30724;BME280;17473;52.286;20.930;2022-08-04T10:58:29;100589.31;;;35.19;27.22
30724;BME280;17473;52.286;20.930;2022-08-04T11:01:26;100589.03;;;35.09;27.34
30724;BME280;17473;52.286;20.930;2022-08-04T11:04:45;100598.38;;;34.49;27.37
30724;BME280;17473;52.286;20.930;2022-08-04T11:07:14;100587.69;;;34.30;27.36
30724;BME280;17473;52.286;20.930;2022-08-04T11:09:43;100589.88;;;34.54;27.48
30724;BME280;17473;52.286;20.930;2022-08-04T11:12:23;100588.31;;;33.90;28.01
30724;BME280;17473;52.286;20.930;2022-08-04T11:15:12;100587.81;;;33.98;28.35
30724;BME280;17473;52.286;20.930;2022-08-04T11:17:51;100577.34;;;34.50;27.56
30724;BME280;17473;52.286;20.930;2022-08-04T11:20:41;100581.38;;;34.44;27.87
30724;BME280;17473;52.286;20.930;2022-08-04T11:23:17;100584.16;;;34.13;28.25
30724;BME280;17473;52.286;20.930;2022-08-04T11:26:12;100578.03;;;33.31;28.83
30724;BME280;17473;52.286;20.930;2022-08-04T11:29:04;100581.97;;;32.77;29.82
30724;BME280;17473;52.286;20.930;2022-08-04T11:31:39;100580.66;;;32.69;29.16
30724;BME280;17473;52.286;20.930;2022-08-04T11:34:18;100578.34;;;32.95;29.06
30724;BME280;17473;52.286;20.930;2022-08-04T11:36:53;100566.28;;;32.99;29.08
30724;BME280;17473;52.286;20.930;2022-08-04T11:39:54;100565.47;;;33.13;28.90
30724;BME280;17473;52.286;20.930;2022-08-04T11:42:30;100569.16;;;32.96;28.94
30724;BME280;17473;52.286;20.930;2022-08-04T11:45:06;100570.44;;;32.72;29.53
30724;BME280;17473;52.286;20.930;2022-08-04T11:48:15;100572.63;;;32.50;29.85
30724;BME280;17473;52.286;20.930;2022-08-04T11:50:49;100566.56;;;32.60;30.48
30724;BME280;17473;52.286;20.930;2022-08-04T11:53:23;100582.50;;;32.68;30.02
30724;BME280;17473;52.286;20.930;2022-08-04T11:55:57;100573.19;;;32.21;31.52
30724;BME280;17473;52.286;20.930;2022-08-04T11:58:36;100581.38;;;32.39;31.12
30724;BME280;17473;52.286;20.930;2022-08-04T12:01:58;100577.06;;;32.17;30.54
30724;BME280;17473;52.286;20.930;2022-08-04T12:04:58;100565.19;;;31.83;31.04
30724;BME280;17473;52.286;20.930;2022-08-04T12:13:38;100570.25;;;31.19;31.44
30724;BME280;17473;52.286;20.930;2022-08-04T12:18:41;100566.72;;;31.89;31.82
30724;BME280;17473;52.286;20.930;2022-08-04T12:21:32;100570.34;;;31.35;31.69
30724;BME280;17473;52.286;20.930;2022-08-04T12:24:04;100559.13;;;31.24;31.79
30724;BME280;17473;52.286;20.930;2022-08-04T12:26:39;100557.16;;;31.26;32.11
30724;BME280;17473;52.286;20.930;2022-08-04T12:29:10;100564.75;;;31.38;31.66
30724;BME280;17473;52.286;20.930;2022-08-04T12:31:48;100559.22;;;31.57;32.05
30724;BME280;17473;52.286;20.930;2022-08-04T12:34:33;100560.41;;;31.51;31.39
30724;BME280;17473;52.286;20.930;2022-08-04T12:37:43;100554.84;;;31.72;31.47
30724;BME280;17473;52.286;20.930;2022-08-04T12:40:22;100550.81;;;31.97;31.13
30724;BME280;17473;52.286;20.930;2022-08-04T12:43:09;100546.59;;;31.91;31.29
30724;BME280;17473;52.286;20.930;2022-08-04T12:45:45;100546.34;;;31.78;31.33
30724;BME280;17473;52.286;20.930;2022-08-04T12:48:16;100536.38;;;31.60;31.61
30724;BME280;17473;52.286;20.930;2022-08-04T12:50:54;100540.09;;;31.94;30.83
30724;BME280;17473;52.286;20.930;2022-08-04T12:53:33;100545.78;;;31.72;31.66
30724;BME280;17473;52.286;20.930;2022-08-04T12:56:25;100537.44;;;31.75;31.14
30724;BME280;17473;52.286;20.930;2022-08-04T12:59:04;100539.84;;;31.63;31.57
30724;BME280;17473;52.286;20.930;2022-08-04T13:01:39;100531.81;;;31.78;31.29
30724;BME280;17473;52.286;20.930;2022-08-04T13:04:33;100531.91;;;31.94;30.57
30724;BME280;17473;52.286;20.930;2022-08-04T13:07:12;100533.19;;;31.87;30.90
30724;BME280;17473;52.286;20.930;2022-08-04T13:09:41;100524.25;;;31.83;31.52
30724;BME280;17473;52.286;20.930;2022-08-04T13:12:22;100532.06;;;31.91;31.66
30724;BME280;17473;52.286;20.930;2022-08-04T13:15:14;100523.16;;;31.87;31.69
30724;BME280;17473;52.286;20.930;2022-08-04T13:18:02;100534.28;;;31.65;31.35
30724;BME280;17473;52.286;20.930;2022-08-04T13:20:33;100531.22;;;31.53;30.47
30724;BME280;17473;52.286;20.930;2022-08-04T13:23:12;100522.88;;;31.39;30.44
30724;BME280;17473;52.286;20.930;2022-08-04T13:25:50;100513.22;;;31.14;31.24
30724;BME280;17473;52.286;20.930;2022-08-04T13:28:42;100505.75;;;30.99;31.70
30724;BME280;17473;52.286;20.930;2022-08-04T13:31:22;100515.72;;;31.19;31.42
30724;BME280;17473;52.286;20.930;2022-08-04T13:34:05;100517.91;;;31.30;30.98
30724;BME280;17473;52.286;20.930;2022-08-04T13:36:45;100503.28;;;31.13;31.67
30724;BME280;17473;52.286;20.930;2022-08-04T13:39:17;100503.06;;;31.18;31.75
30724;BME280;17473;52.286;20.930;2022-08-04T13:41:50;100509.09;;;31.60;31.37
30724;BME280;17473;52.286;20.930;2022-08-04T13:44:30;100504.03;;;31.34;31.52
30724;BME280;17473;52.286;20.930;2022-08-04T13:47:07;100502.88;;;31.21;31.81
30724;BME280;17473;52.286;20.930;2022-08-04T13:49:40;100508.59;;;31.34;32.04
30724;BME280;17473;52.286;20.930;2022-08-04T13:52:26;100489.34;;;31.19;31.76
30724;BME280;17473;52.286;20.930;2022-08-04T13:54:54;100499.69;;;31.30;31.09
30724;BME280;17473;52.286;20.930;2022-08-04T13:57:30;100496.34;;;31.43;30.64
30724;BME280;17473;52.286;20.930;2022-08-04T14:00:05;100491.81;;;31.24;31.36
30724;BME280;17473;52.286;20.930;2022-08-04T14:03:02;100494.22;;;31.65;31.35
30724;BME280;17473;52.286;20.930;2022-08-04T14:06:33;100490.31;;;31.53;30.87
30724;BME280;17473;52.286;20.930;2022-08-04T14:09:19;100476.59;;;31.37;30.83
30724;BME280;17473;52.286;20.930;2022-08-04T14:11:55;100480.72;;;31.10;30.42
30724;BME280;17473;52.286;20.930;2022-08-04T14:14:52;100485.28;;;30.72;30.87
30724;BME280;17473;52.286;20.930;2022-08-04T14:17:25;100482.78;;;30.68;31.10
30724;BME280;17473;52.286;20.930;2022-08-04T14:19:59;100476.28;;;30.70;30.49
30724;BME280;17473;52.286;20.930;2022-08-04T14:22:27;100486.38;;;30.87;30.67
30724;BME280;17473;52.286;20.930;2022-08-04T14:25:08;100475.91;;;30.78;30.54
30724;BME280;17473;52.286;20.930;2022-08-04T14:27:55;100473.41;;;30.73;30.18
30724;BME280;17473;52.286;20.930;2022-08-04T14:30:33;100472.75;;;30.68;30.52
30724;BME280;17473;52.286;20.930;2022-08-04T14:33:07;100465.63;;;30.66;30.69
30724;BME280;17473;52.286;20.930;2022-08-04T14:35:58;100468.03;;;30.72;31.60
30724;BME280;17473;52.286;20.930;2022-08-04T14:41:15;100465.06;;;30.76;30.96
30724;BME280;17473;52.286;20.930;2022-08-04T14:43:47;100447.72;;;30.79;31.02
30724;BME280;17473;52.286;20.930;2022-08-04T14:46:15;100476.78;;;30.79;30.89
30724;BME280;17473;52.286;20.930;2022-08-04T14:49:11;100463.03;;;30.82;30.84
30724;BME280;17473;52.286;20.930;2022-08-04T14:51:52;100465.53;;;30.86;30.50
30724;BME280;17473;52.286;20.930;2022-08-04T14:54:33;100471.56;;;30.74;30.73
30724;BME280;17473;52.286;20.930;2022-08-04T14:57:04;100459.03;;;30.89;30.45
30724;BME280;17473;52.286;20.930;2022-08-04T14:59:49;100457.13;;;30.91;30.51
30724;BME280;17473;52.286;20.930;2022-08-04T15:02:25;100457.91;;;30.93;30.03
30724;BME280;17473;52.286;20.930;2022-08-04T15:04:56;100446.53;;;31.02;30.27
30724;BME280;17473;52.286;20.930;2022-08-04T15:07:25;100466.84;;;30.97;30.95
30724;BME280;17473;52.286;20.930;2022-08-04T15:09:53;100458.94;;;30.90;30.79
30724;BME280;17473;52.286;20.930;2022-08-04T15:12:21;100461.75;;;30.89;31.02
30724;BME280;17473;52.286;20.930;2022-08-04T15:14:48;100463.78;;;31.03;30.64
30724;BME280;17473;52.286;20.930;2022-08-04T15:17:15;100454.22;;;31.13;30.85
30724;BME280;17473;52.286;20.930;2022-08-04T15:19:56;100449.44;;;30.99;30.76
30724;BME280;17473;52.286;20.930;2022-08-04T15:22:24;100452.22;;;31.17;31.21
30724;BME280;17473;52.286;20.930;2022-08-04T15:24:51;100459.66;;;31.13;30.55
30724;BME280;17473;52.286;20.930;2022-08-04T15:27:27;100451.13;;;31.02;30.41
30724;BME280;17473;52.286;20.930;2022-08-04T15:30:07;100451.41;;;30.78;30.50
30724;BME280;17473;52.286;20.930;2022-08-04T15:32:39;100448.00;;;30.73;31.03
30724;BME280;17473;52.286;20.930;2022-08-04T15:35:17;100445.69;;;30.65;31.27
30724;BME280;17473;52.286;20.930;2022-08-04T15:38:10;100436.22;;;30.72;30.59
30724;BME280;17473;52.286;20.930;2022-08-04T15:43:54;100443.59;;;30.51;31.30
30724;BME280;17473;52.286;20.930;2022-08-04T15:49:20;100440.81;;;30.53;30.82
30724;BME280;17473;52.286;20.930;2022-08-04T15:52:03;100445.25;;;30.35;30.93
30724;BME280;17473;52.286;20.930;2022-08-04T15:54:38;100439.53;;;30.22;31.10
30724;BME280;17473;52.286;20.930;2022-08-04T15:57:57;100445.97;;;30.21;30.80
30724;BME280;17473;52.286;20.930;2022-08-04T16:00:27;100436.25;;;30.15;31.51
30724;BME280;17473;52.286;20.930;2022-08-04T16:02:54;100449.25;;;30.27;31.43
30724;BME280;17473;52.286;20.930;2022-08-04T16:08:11;100451.75;;;30.32;31.29
30724;BME280;17473;52.286;20.930;2022-08-04T16:10:42;100444.19;;;30.20;31.18
30724;BME280;17473;52.286;20.930;2022-08-04T16:13:21;100439.09;;;29.93;32.07
30724;BME280;17473;52.286;20.930;2022-08-04T16:15:56;100444.88;;;30.04;31.57
30724;BME280;17473;52.286;20.930;2022-08-04T16:21:06;100438.00;;;30.16;31.64
30724;BME280;17473;52.286;20.930;2022-08-04T16:29:32;100440.19;;;30.08;32.08
30724;BME280;17473;52.286;20.930;2022-08-04T16:32:16;100441.63;;;29.96;32.14
30724;BME280;17473;52.286;20.930;2022-08-04T16:35:00;100427.03;;;29.98;31.49
30724;BME280;17473;52.286;20.930;2022-08-04T16:37:35;100428.19;;;29.93;32.09
30724;BME280;17473;52.286;20.930;2022-08-04T16:40:35;100425.56;;;29.90;32.43
30724;BME280;17473;52.286;20.930;2022-08-04T16:43:14;100426.66;;;29.86;31.89
30724;BME280;17473;52.286;20.930;2022-08-04T16:46:03;100415.34;;;30.16;31.65
30724;BME280;17473;52.286;20.930;2022-08-04T16:48:33;100417.41;;;30.10;32.27